createdAt,value
2018-08-04T00:01:36.691Z,31.80
2018-08-04T00:04:03.819Z,31.60
2018-08-04T00:06:30.991Z,32.00
2018-08-04T00:08:58.727Z,32.10
2018-08-04T00:11:25.903Z,31.80
2018-08-04T00:13:52.945Z,31.80
2018-08-04T00:16:20.129Z,31.40
2018-08-04T00:18:47.186Z,31.50
2018-08-04T00:21:14.191Z,32.00
2018-08-04T00:23:41.182Z,32.30
2018-08-04T00:26:08.438Z,32.40
2018-08-04T00:28:35.467Z,32.60
2018-08-04T00:31:02.594Z,32.70
2018-08-04T00:33:29.606Z,32.70
2018-08-04T00:35:56.593Z,32.70
2018-08-04T00:38:24.500Z,32.70
2018-08-04T00:40:51.719Z,33.00
2018-08-04T00:43:19.270Z,33.50
2018-08-04T00:45:46.695Z,33.30
2018-08-04T00:48:13.743Z,33.50
2018-08-04T00:50:40.767Z,33.90
2018-08-04T00:53:08.278Z,34.20
2018-08-04T00:55:35.601Z,35.10
2018-08-04T00:58:03.157Z,35.00
2018-08-04T01:00:30.132Z,35.70
2018-08-04T01:02:58.303Z,34.90
2018-08-04T01:05:26.457Z,35.40
2018-08-04T01:07:54.116Z,35.20
2018-08-04T01:10:21.848Z,36.10
2018-08-04T01:12:49.467Z,36.10
2018-08-04T01:15:17.191Z,36.20
2018-08-04T01:17:47.349Z,36.50
2018-08-04T01:20:15.090Z,36.80
2018-08-04T01:22:42.790Z,36.90
2018-08-04T01:25:10.442Z,36.90
2018-08-04T01:27:38.263Z,36.80
2018-08-04T01:30:06.518Z,36.50
2018-08-04T01:32:34.274Z,36.30
2018-08-04T01:35:02.174Z,36.40
2018-08-04T01:37:30.025Z,36.50
2018-08-04T01:39:57.819Z,36.50
2018-08-04T01:42:25.589Z,36.90
2018-08-04T01:44:53.691Z,37.30
2018-08-04T01:47:22.086Z,37.20
2018-08-04T01:49:50.119Z,37.60
2018-08-04T01:52:17.756Z,37.60
2018-08-04T01:54:45.344Z,38.00
2018-08-04T01:57:13.228Z,38.40
2018-08-04T01:59:41.348Z,38.10
2018-08-04T02:02:09.303Z,38.40
2018-08-04T02:04:36.967Z,38.70
2018-08-04T02:07:05.711Z,38.20
2018-08-04T02:09:33.891Z,38.10
2018-08-04T02:12:01.575Z,38.30
2018-08-04T02:14:29.494Z,38.10
2018-08-04T02:16:57.290Z,38.30
2018-08-04T02:19:24.889Z,38.90
2018-08-04T02:21:52.764Z,39.40
2018-08-04T02:24:20.538Z,39.40
2018-08-04T02:26:48.234Z,39.70
2018-08-04T02:29:15.981Z,39.60
2018-08-04T02:31:43.608Z,39.70
2018-08-04T02:34:11.303Z,39.60
2018-08-04T02:36:39.103Z,39.70
2018-08-04T02:39:07.785Z,39.90
2018-08-04T02:41:35.516Z,39.80
2018-08-04T02:44:03.222Z,40.20
2018-08-04T02:46:30.943Z,40.40
2018-08-04T02:48:58.600Z,40.80
2018-08-04T02:51:26.306Z,40.50
2018-08-04T02:53:54.163Z,40.70
2018-08-04T02:56:21.794Z,41.80
2018-08-04T02:58:50.162Z,41.00
2018-08-04T03:01:17.839Z,41.20
2018-08-04T03:03:46.216Z,41.50
2018-08-04T03:06:13.843Z,41.60
2018-08-04T03:08:41.472Z,41.50
2018-08-04T03:11:09.019Z,41.50
2018-08-04T03:13:36.916Z,41.30
2018-08-04T03:16:04.599Z,41.30
2018-08-04T03:18:32.238Z,40.80
2018-08-04T03:20:59.854Z,41.20
2018-08-04T03:23:27.485Z,41.00
2018-08-04T03:25:55.098Z,40.70
2018-08-04T03:28:22.637Z,41.00
2018-08-04T03:30:50.212Z,40.90
2018-08-04T03:33:18.162Z,40.70
2018-08-04T03:35:45.803Z,41.00
2018-08-04T03:38:13.351Z,41.40
2018-08-04T03:40:40.900Z,41.10
2018-08-04T03:43:08.565Z,41.10
2018-08-04T03:45:36.135Z,41.20
2018-08-04T03:48:03.821Z,41.90
2018-08-04T03:50:31.525Z,41.10
2018-08-04T03:53:08.072Z,41.20
2018-08-04T03:58:37.145Z,41.50
2018-08-04T04:01:05.535Z,41.20
2018-08-04T04:03:34.421Z,41.70
2018-08-04T04:06:02.031Z,41.50
2018-08-04T04:08:29.900Z,41.50
2018-08-04T04:10:57.499Z,41.70
2018-08-04T04:13:25.873Z,41.60
2018-08-04T04:15:53.508Z,42.10
2018-08-04T04:18:21.133Z,41.70
2018-08-04T04:20:48.700Z,41.50
2018-08-04T04:23:16.693Z,41.70
2018-08-04T04:25:44.346Z,42.20
2018-08-04T04:28:11.984Z,41.90
2018-08-04T04:30:39.567Z,42.00
2018-08-04T04:33:07.310Z,42.00
2018-08-04T04:35:37.980Z,41.90
2018-08-04T04:38:06.209Z,41.60
2018-08-04T04:40:33.920Z,41.40
2018-08-04T04:43:01.918Z,42.00
2018-08-04T04:45:29.627Z,41.70
2018-08-04T04:47:57.528Z,41.50
2018-08-04T04:50:30.503Z,41.50
2018-08-04T04:52:58.220Z,41.80
2018-08-04T04:55:25.965Z,41.30
2018-08-04T04:57:53.772Z,41.10
2018-08-04T05:00:21.900Z,41.50
2018-08-04T05:02:49.583Z,40.80
2018-08-04T05:05:17.111Z,40.80
2018-08-04T05:07:47.347Z,40.80
2018-08-04T05:10:14.867Z,40.50
2018-08-04T05:12:42.530Z,40.40
2018-08-04T05:15:10.308Z,39.40
2018-08-04T05:17:38.111Z,39.70
2018-08-04T05:20:06.421Z,39.50
2018-08-04T05:22:34.144Z,39.10
2018-08-04T05:25:01.932Z,39.20
2018-08-04T05:27:30.806Z,39.30
2018-08-04T05:30:15.885Z,38.50
2018-08-04T05:32:43.652Z,39.40
2018-08-04T05:35:11.430Z,39.50
2018-08-04T05:37:39.160Z,39.50
2018-08-04T05:40:06.906Z,39.60
2018-08-04T05:42:34.723Z,39.40
2018-08-04T05:45:02.767Z,39.00
2018-08-04T05:47:30.414Z,38.60
2018-08-04T05:49:58.341Z,38.00
2018-08-04T05:52:25.996Z,37.20
2018-08-04T05:54:53.574Z,37.10
2018-08-04T05:57:21.357Z,36.70
2018-08-04T05:59:48.887Z,36.50
2018-08-04T06:02:16.554Z,36.60
2018-08-04T06:04:44.230Z,36.00
2018-08-04T06:07:12.109Z,35.80
2018-08-04T06:09:39.857Z,34.50
2018-08-04T06:12:07.619Z,35.00
2018-08-04T06:14:42.774Z,35.20
2018-08-04T06:17:10.508Z,34.60
2018-08-04T06:19:38.183Z,34.00
2018-08-04T06:22:07.278Z,33.10
2018-08-04T06:24:36.866Z,32.50
2018-08-04T06:27:04.823Z,32.50
2018-08-04T06:29:33.198Z,32.50
2018-08-04T06:32:06.272Z,32.40
2018-08-04T06:34:33.991Z,32.30
2018-08-04T06:37:01.887Z,32.40
2018-08-04T06:39:29.692Z,31.80
2018-08-04T06:41:57.746Z,31.60
2018-08-04T06:44:25.991Z,32.00
2018-08-04T06:46:53.896Z,31.50
2018-08-04T06:49:21.751Z,31.50
2018-08-04T06:51:49.952Z,31.30
2018-08-04T06:54:17.937Z,30.20
2018-08-04T06:56:45.665Z,30.80
2018-08-04T06:59:14.258Z,30.90
2018-08-04T07:01:43.216Z,30.70
2018-08-04T07:04:11.032Z,30.90
2018-08-04T07:06:38.856Z,29.90
2018-08-04T07:09:08.095Z,29.80
2018-08-04T07:11:35.891Z,29.00
2018-08-04T07:14:03.939Z,29.10
2018-08-04T07:16:32.510Z,29.10
2018-08-04T07:19:00.238Z,29.40
2018-08-04T07:21:45.048Z,29.50
2018-08-04T07:24:12.813Z,29.30
2018-08-04T07:26:40.486Z,28.90
2018-08-04T07:29:10.145Z,29.00
2018-08-04T07:31:38.268Z,28.50
2018-08-04T07:34:06.013Z,29.20
2018-08-04T07:36:33.700Z,29.20
2018-08-04T07:39:01.608Z,29.10
2018-08-04T07:41:30.632Z,28.90
2018-08-04T07:43:58.260Z,29.10
2018-08-04T07:46:25.927Z,28.80
2018-08-04T07:48:54.056Z,28.70
2018-08-04T07:51:22.247Z,28.90
2018-08-04T07:53:50.456Z,28.60
2018-08-04T07:56:18.701Z,28.70
2018-08-04T07:58:46.447Z,28.20
2018-08-04T08:01:14.302Z,28.30
2018-08-04T08:03:43.316Z,28.90
2018-08-04T08:06:11.219Z,29.00
2018-08-04T08:08:39.050Z,28.30
2018-08-04T08:11:06.939Z,28.40
2018-08-04T08:13:34.714Z,28.40
2018-08-04T08:16:02.624Z,28.50
2018-08-04T08:18:31.039Z,28.50
2018-08-04T08:20:59.790Z,28.10
2018-08-04T08:23:29.367Z,28.10
2018-08-04T08:26:04.821Z,27.60
2018-08-04T08:28:32.663Z,27.70
2018-08-04T08:31:02.857Z,27.80
2018-08-04T08:33:31.859Z,27.80
2018-08-04T08:36:00.466Z,27.00
2018-08-04T08:38:28.580Z,26.80
2018-08-04T08:40:56.672Z,27.30
2018-08-04T08:43:24.767Z,27.10
2018-08-04T08:45:52.623Z,26.50
2018-08-04T08:48:20.898Z,26.60
2018-08-04T08:50:49.059Z,26.60
2018-08-04T08:53:17.585Z,26.00
2018-08-04T08:55:45.251Z,25.40
2018-08-04T08:58:13.248Z,25.70
2018-08-04T09:00:41.026Z,25.50
2018-08-04T09:03:08.856Z,26.00
2018-08-04T09:05:36.589Z,26.00
2018-08-04T09:08:04.445Z,25.80
2018-08-04T09:10:32.476Z,25.80
2018-08-04T09:13:00.572Z,25.70
2018-08-04T09:15:28.287Z,25.70
2018-08-04T09:17:56.332Z,25.70
2018-08-04T09:20:24.175Z,25.40
2018-08-04T09:22:51.972Z,25.40
2018-08-04T09:25:19.734Z,25.50
2018-08-04T09:27:47.990Z,25.30
2018-08-04T09:30:16.077Z,24.90
2018-08-04T09:32:45.295Z,24.90
2018-08-04T09:35:14.119Z,24.60
2018-08-04T09:37:41.794Z,24.80
2018-08-04T09:40:11.664Z,25.00
2018-08-04T09:42:39.414Z,24.40
2018-08-04T09:45:09.175Z,24.20
2018-08-04T09:47:37.549Z,24.60
2018-08-04T09:50:06.636Z,24.00
2018-08-04T09:52:34.749Z,24.10
2018-08-04T09:55:02.587Z,23.90
2018-08-04T09:57:30.383Z,23.80
2018-08-04T09:59:58.396Z,23.30
2018-08-04T10:02:27.165Z,22.60
2018-08-04T10:04:56.138Z,23.10
2018-08-04T10:07:24.203Z,22.10
2018-08-04T10:09:53.018Z,22.50
2018-08-04T10:12:21.203Z,22.30
2018-08-04T10:14:49.456Z,22.30
2018-08-04T10:17:17.492Z,22.30
2018-08-04T10:19:45.817Z,22.30
2018-08-04T10:22:13.688Z,21.80
2018-08-04T10:24:42.240Z,22.40
2018-08-04T10:27:10.183Z,21.50
2018-08-04T10:29:37.939Z,21.50
2018-08-04T10:32:05.729Z,21.50
2018-08-04T10:34:33.534Z,21.40
2018-08-04T10:37:01.557Z,20.80
2018-08-04T10:39:29.228Z,20.70
2018-08-04T10:41:57.172Z,20.40
2018-08-04T10:44:25.315Z,20.20
2018-08-04T10:46:53.418Z,19.90
2018-08-04T10:49:21.241Z,19.90
2018-08-04T10:51:49.400Z,19.10
2018-08-04T10:54:18.189Z,18.80
2018-08-04T10:56:46.686Z,18.80
2018-08-04T10:59:14.563Z,18.40
2018-08-04T11:01:43.307Z,18.50
2018-08-04T11:04:11.519Z,18.90
2018-08-04T11:06:39.677Z,18.80
2018-08-04T11:09:08.932Z,17.80
2018-08-04T11:11:37.101Z,18.70
2018-08-04T11:14:05.911Z,18.60
2018-08-04T11:16:34.734Z,18.30
2018-08-04T11:19:04.905Z,18.70
2018-08-04T11:21:33.042Z,18.20
2018-08-04T11:24:00.979Z,18.20
2018-08-04T11:26:28.705Z,18.50
2018-08-04T11:28:56.575Z,17.70
2018-08-04T11:31:24.718Z,17.70
2018-08-04T11:33:53.109Z,18.20
2018-08-04T11:36:21.303Z,17.60
2018-08-04T11:38:49.063Z,17.30
2018-08-04T11:41:16.964Z,17.80
2018-08-04T11:43:44.692Z,16.70
2018-08-04T11:46:12.353Z,16.40
2018-08-04T11:48:41.008Z,17.00
2018-08-04T11:51:08.715Z,15.70
2018-08-04T11:53:36.701Z,15.60
2018-08-04T11:56:05.123Z,15.00
2018-08-04T11:58:34.115Z,15.40
2018-08-04T12:01:01.915Z,15.80
2018-08-04T12:03:30.264Z,15.50
2018-08-04T12:05:57.982Z,17.60
2018-08-04T12:08:25.615Z,17.50
2018-08-04T12:10:53.717Z,18.10
2018-08-04T12:13:21.668Z,20.20
2018-08-04T12:15:49.697Z,21.90
2018-08-04T12:18:17.627Z,22.90
2018-08-04T12:20:45.174Z,23.00
2018-08-04T12:23:12.316Z,24.50
2018-08-04T12:25:39.935Z,25.90
2018-08-04T12:28:07.770Z,25.10
2018-08-04T12:30:35.122Z,24.60
2018-08-04T12:33:02.507Z,24.90
2018-08-04T12:35:29.932Z,24.50
2018-08-04T12:37:57.159Z,22.80
2018-08-04T12:40:24.234Z,23.40
2018-08-04T12:42:51.272Z,22.50
2018-08-04T12:45:18.307Z,21.70
2018-08-04T12:47:45.452Z,18.10
2018-08-04T12:50:12.683Z,18.70
2018-08-04T12:52:39.920Z,19.40
2018-08-04T12:55:06.996Z,18.30
2018-08-04T12:57:34.050Z,18.50
2018-08-04T13:00:01.218Z,16.80
2018-08-04T13:02:28.410Z,15.50
2018-08-04T13:04:55.613Z,15.30
2018-08-04T13:07:22.843Z,15.70
2018-08-04T13:09:49.987Z,14.30
2018-08-04T13:12:17.135Z,14.00
2018-08-04T13:14:44.186Z,13.50
2018-08-04T13:17:11.221Z,12.50
2018-08-04T13:19:38.296Z,12.10
2018-08-04T13:22:06.478Z,12.40
2018-08-04T13:24:33.764Z,11.70
2018-08-04T13:27:00.898Z,12.30
2018-08-04T13:29:27.915Z,11.00
2018-08-04T13:31:55.230Z,10.70
2018-08-04T13:34:22.256Z,11.20
2018-08-04T13:36:49.990Z,10.90
2018-08-04T13:39:17.112Z,11.20
2018-08-04T13:41:44.205Z,11.30
2018-08-04T13:44:11.236Z,11.50
2018-08-04T13:46:38.851Z,11.60
2018-08-04T13:49:05.864Z,12.30
2018-08-04T13:51:32.951Z,12.60
2018-08-04T13:54:00.119Z,12.40
2018-08-04T13:56:27.484Z,13.60
2018-08-04T13:58:54.553Z,15.10
2018-08-04T14:01:21.643Z,15.50
2018-08-04T14:03:48.676Z,15.20
2018-08-04T14:06:15.816Z,16.10
2018-08-04T14:08:42.861Z,16.60
2018-08-04T14:11:09.992Z,17.20
2018-08-04T14:13:37.310Z,18.50
2018-08-04T14:16:04.575Z,18.80
2018-08-04T14:18:31.660Z,20.00
2018-08-04T14:20:58.724Z,20.20
2018-08-04T14:23:25.816Z,20.30
2018-08-04T14:25:52.872Z,20.00
2018-08-04T14:28:19.977Z,19.30
2018-08-04T14:30:47.126Z,18.90
2018-08-04T14:33:14.255Z,18.80
2018-08-04T14:35:41.279Z,18.90
2018-08-04T14:38:08.323Z,18.40
2018-08-04T14:40:35.414Z,18.20
2018-08-04T14:43:02.546Z,16.40
2018-08-04T14:45:29.673Z,16.80
2018-08-04T14:47:56.724Z,17.00
2018-08-04T14:50:23.790Z,17.20
2018-08-04T14:52:50.921Z,18.10
2018-08-04T14:55:17.966Z,18.40
2018-08-04T14:57:45.015Z,18.90
2018-08-04T15:00:12.334Z,19.30
2018-08-04T15:02:39.413Z,19.30
2018-08-04T15:05:06.710Z,20.00
2018-08-04T15:07:33.744Z,20.20
2018-08-04T15:10:00.911Z,19.70
2018-08-04T15:12:27.901Z,19.70
2018-08-04T15:14:55.019Z,20.00
2018-08-04T15:17:22.056Z,19.40
2018-08-04T15:19:49.124Z,19.60
2018-08-04T15:22:16.200Z,19.80
2018-08-04T15:24:43.214Z,20.40
2018-08-04T15:27:10.395Z,20.20
2018-08-04T15:29:37.419Z,20.40
2018-08-04T15:32:04.545Z,20.80
2018-08-04T15:34:31.561Z,20.60
2018-08-04T15:36:58.701Z,20.50
2018-08-04T15:39:25.748Z,20.80
2018-08-04T15:41:52.838Z,20.70
2018-08-04T15:44:19.915Z,20.70
2018-08-04T15:46:46.994Z,20.80
2018-08-04T15:49:14.178Z,20.50
2018-08-04T15:51:41.354Z,20.30
2018-08-04T15:54:08.390Z,20.60
2018-08-04T15:56:35.610Z,20.00
2018-08-04T15:59:02.643Z,19.80
2018-08-04T16:01:29.752Z,19.70
2018-08-04T16:03:56.836Z,19.10
2018-08-04T16:06:23.846Z,19.00
2018-08-04T16:08:50.848Z,18.50
2018-08-04T16:11:17.846Z,18.60
2018-08-04T16:13:44.888Z,19.40
2018-08-04T16:16:11.978Z,18.50
2018-08-04T16:18:39.022Z,19.10
2018-08-04T16:21:06.099Z,18.00
2018-08-04T16:23:33.174Z,17.80
2018-08-04T16:26:00.227Z,18.00
2018-08-04T16:28:27.267Z,17.80
2018-08-04T16:30:54.240Z,17.70
2018-08-04T16:33:21.346Z,17.30
2018-08-04T16:35:48.529Z,17.20
2018-08-04T16:38:15.608Z,17.00
2018-08-04T16:40:42.696Z,16.60
2018-08-04T16:43:09.878Z,17.20
2018-08-04T16:45:36.862Z,16.70
2018-08-04T16:48:03.976Z,16.60
2018-08-04T16:50:31.017Z,17.00
2018-08-04T16:52:58.100Z,17.00
2018-08-04T16:55:25.150Z,16.90
2018-08-04T16:57:52.238Z,17.10
2018-08-04T17:00:19.329Z,17.00
2018-08-04T17:02:46.321Z,16.90
2018-08-04T17:05:13.382Z,16.80
2018-08-04T17:07:40.488Z,17.00
2018-08-04T17:10:07.610Z,16.60
2018-08-04T17:12:34.893Z,16.80
2018-08-04T17:15:01.972Z,16.90
2018-08-04T17:17:28.946Z,17.50
2018-08-04T17:19:56.026Z,17.30
2018-08-04T17:22:23.112Z,17.70
2018-08-04T17:24:50.080Z,18.00
2018-08-04T17:27:17.056Z,18.00
2018-08-04T17:29:44.094Z,17.80
2018-08-04T17:32:11.141Z,18.00
2018-08-04T17:34:38.145Z,18.30
2018-08-04T17:37:05.274Z,17.90
2018-08-04T17:39:32.521Z,18.10
2018-08-04T17:41:59.969Z,21.00
2018-08-04T17:44:27.282Z,19.10
2018-08-04T17:46:54.484Z,18.40
2018-08-04T17:49:22.226Z,18.60
2018-08-04T17:51:49.396Z,20.10
2018-08-04T17:54:16.501Z,20.00
2018-08-04T17:56:43.616Z,19.20
2018-08-04T17:59:10.844Z,19.70
2018-08-04T18:01:37.985Z,19.40
2018-08-04T18:04:05.097Z,19.70
2018-08-04T18:06:32.190Z,19.70
2018-08-04T18:08:59.788Z,21.10
2018-08-04T18:11:26.910Z,20.30
2018-08-04T18:13:54.317Z,20.10
2018-08-04T18:16:23.736Z,18.50
2018-08-04T18:18:50.911Z,17.60
2018-08-04T18:21:17.974Z,17.60
2018-08-04T18:23:45.177Z,16.80
2018-08-04T18:26:12.569Z,16.50
2018-08-04T18:28:39.761Z,15.60
2018-08-04T18:31:06.819Z,15.80
2018-08-04T18:33:33.971Z,15.10
2018-08-04T18:36:01.028Z,15.40
2018-08-04T18:38:28.328Z,15.20
2018-08-04T18:40:55.427Z,15.50
2018-08-04T18:43:22.582Z,15.70
2018-08-04T18:45:49.737Z,15.80
2018-08-04T18:48:20.277Z,15.50
2018-08-04T18:50:50.389Z,15.80
2018-08-04T18:53:17.965Z,15.50
2018-08-04T18:55:52.501Z,15.10
2018-08-04T18:58:21.890Z,15.10
2018-08-04T19:00:48.986Z,14.90
2018-08-04T19:03:18.151Z,14.70
2018-08-04T19:05:45.290Z,14.90
2018-08-04T19:08:12.436Z,14.70
2018-08-04T19:10:40.788Z,14.80
2018-08-04T19:13:09.603Z,14.70
2018-08-04T19:15:40.871Z,14.90
2018-08-04T19:18:13.259Z,15.40
2018-08-04T19:20:43.026Z,15.80
2018-08-04T19:23:11.763Z,15.80
2018-08-04T19:25:40.711Z,16.30
2018-08-04T19:28:09.880Z,16.20
2018-08-04T19:30:37.055Z,16.30
2018-08-04T19:33:05.146Z,16.60
2018-08-04T19:35:32.301Z,16.60
2018-08-04T19:38:00.964Z,16.90
2018-08-04T19:40:28.255Z,17.20
2018-08-04T19:42:56.716Z,17.20
2018-08-04T19:45:24.398Z,17.70
2018-08-04T19:47:51.893Z,17.90
2018-08-04T19:50:19.376Z,18.10
2018-08-04T19:52:46.793Z,18.10
2018-08-04T19:55:14.076Z,18.60
2018-08-04T19:57:41.160Z,18.90
2018-08-04T20:00:08.268Z,18.50
2018-08-04T20:02:37.970Z,18.70
2018-08-04T20:05:09.655Z,18.40
2018-08-04T20:07:36.982Z,18.60
2018-08-04T20:10:06.689Z,18.70
2018-08-04T20:12:33.948Z,18.80
2018-08-04T20:15:01.106Z,18.70
2018-08-04T20:17:29.582Z,18.90
2018-08-04T20:19:56.675Z,19.10
2018-08-04T20:22:23.726Z,19.20
2018-08-04T20:24:50.867Z,19.50
2018-08-04T20:27:17.979Z,19.40
2018-08-04T20:29:45.555Z,19.50
2018-08-04T20:32:12.589Z,19.40
2018-08-04T20:34:39.722Z,19.80
2018-08-04T20:37:07.122Z,19.70
2018-08-04T20:39:34.135Z,19.70
2018-08-04T20:42:04.493Z,20.00
2018-08-04T20:44:33.950Z,20.00
2018-08-04T20:47:01.087Z,20.20
2018-08-04T20:49:28.285Z,20.20
2018-08-04T20:51:56.462Z,20.20
2018-08-04T20:54:23.755Z,20.20
2018-08-04T20:56:52.416Z,20.10
2018-08-04T20:59:20.547Z,20.10
2018-08-04T21:01:50.550Z,20.00
2018-08-04T21:04:17.916Z,20.00
2018-08-04T21:06:45.039Z,20.00
2018-08-04T21:09:12.051Z,20.00
2018-08-04T21:11:44.448Z,20.40
2018-08-04T21:17:07.616Z,20.80
2018-08-04T21:19:34.739Z,20.80
2018-08-04T21:22:06.214Z,21.00
2018-08-04T21:24:33.378Z,21.20
2018-08-04T21:27:00.535Z,21.30
2018-08-04T21:29:28.344Z,21.40
2018-08-04T21:31:55.736Z,21.80
2018-08-04T21:34:22.831Z,21.70
2018-08-04T21:36:49.963Z,21.80
2018-08-04T21:39:18.336Z,22.60
2018-08-04T21:41:46.096Z,22.20
2018-08-04T21:44:13.665Z,22.20
2018-08-04T21:46:43.499Z,22.40
2018-08-04T21:49:10.696Z,22.80
2018-08-04T21:51:38.181Z,22.70
2018-08-04T21:54:05.304Z,22.90
2018-08-04T21:56:32.449Z,23.20
2018-08-04T21:58:59.523Z,23.50
2018-08-04T22:01:27.056Z,23.30
2018-08-04T22:03:55.047Z,23.60
2018-08-04T22:06:23.342Z,23.60
2018-08-04T22:08:57.720Z,23.80
2018-08-04T22:11:25.828Z,23.90
2018-08-04T22:13:52.914Z,24.10
2018-08-04T22:16:19.975Z,24.30
2018-08-04T22:18:47.108Z,24.30
2018-08-04T22:21:14.188Z,24.40
2018-08-04T22:23:41.524Z,24.40
2018-08-04T22:26:08.789Z,24.50
2018-08-04T22:28:36.154Z,24.60
2018-08-04T22:31:03.186Z,24.80
2018-08-04T22:33:31.324Z,24.80
2018-08-04T22:36:01.616Z,24.90
2018-08-04T22:38:29.229Z,25.10
2018-08-04T22:40:58.320Z,25.10
2018-08-04T22:43:25.726Z,25.30
2018-08-04T22:46:00.439Z,25.40
2018-08-04T22:48:29.624Z,25.30
2018-08-04T22:50:58.819Z,25.70
2018-08-04T22:53:25.966Z,25.90
2018-08-04T22:55:53.189Z,25.70
2018-08-04T22:58:20.961Z,25.90
2018-08-04T23:00:48.082Z,26.10
2018-08-04T23:03:15.425Z,26.30
2018-08-04T23:05:57.085Z,26.20
2018-08-04T23:08:24.163Z,26.20
2018-08-04T23:10:51.299Z,26.60
2018-08-04T23:13:18.538Z,26.70
2018-08-04T23:15:45.674Z,26.60
2018-08-04T23:18:13.603Z,27.10
2018-08-04T23:20:41.067Z,26.80
2018-08-04T23:23:12.676Z,27.10
2018-08-04T23:25:40.003Z,27.10
2018-08-04T23:28:07.278Z,27.10
2018-08-04T23:30:34.389Z,27.10
2018-08-04T23:33:01.499Z,27.10
2018-08-04T23:35:36.458Z,27.10
2018-08-04T23:38:04.994Z,27.60
2018-08-04T23:40:32.146Z,27.00
2018-08-04T23:42:59.292Z,27.00
2018-08-04T23:45:26.438Z,27.60
2018-08-04T23:48:00.173Z,27.60
2018-08-04T23:50:27.385Z,27.60
2018-08-04T23:52:55.135Z,27.80
2018-08-04T23:55:22.143Z,27.80
2018-08-04T23:57:49.279Z,27.90
